»·PEaware :: N286WF KSBP-KBFL

N286WF :: KSBP-KBFL

FLIGHT INFORMATION

Flight Status: Arrived
Operator: Privately registered:
United States
More flights under this callsign
Pilot: Frank W. (16848)
Aircraft: Unknown
(P28U)
More flights by this aircraft type
Origin: KSBP San Luis Co Regl
United States
Destination: KBFL Meadows
United States
More flights between these airports :: More routes between these airports
Route: + FLW ARVIN
File this flight plan on PilotEdge
Remarks:
Altitude:
(Current/Filed)
9,500ft
Speed:
(Current/Filed)
140kts
Departed: 03-Sep-19 05:33 PM
Arrived: 03-Sep-19 06:15 PM
Distance/Time
Traveled:
79nm/0:42
Distance/Time
To Go:
Arrived

Flight Plot

Page will automatically refresh every two minutes.


Map Options




Map Legend


Flown Route
Filed Route
Departure Airport
Arrival Airport
Navaid (VOR, NDB)
Fix

Horizontal Profiles

Position Reports

Time Latitude Longitude Heading Altitude Ground
Speed
03-Sep-19 17:31 35.184201 -120.447045 101 6259ft 118kts
03-Sep-19 17:32 35.178110 -120.407498 100 7007ft 118kts
03-Sep-19 17:33 35.171998 -120.367844 101 7710ft 118kts
03-Sep-19 17:34 35.165635 -120.327787 101 8323ft 119kts
03-Sep-19 17:35 35.159294 -120.287920 101 8894ft 119kts
03-Sep-19 17:36 35.153090 -120.247927 100 9442ft 119kts
03-Sep-19 17:37 35.146338 -120.204425 101 9625ft 134kts
03-Sep-19 17:38 35.138836 -120.156286 100 9523ft 146kts
03-Sep-19 17:39 35.131210 -120.107458 100 9539ft 145kts
03-Sep-19 17:40 35.123563 -120.058532 100 9536ft 146kts
03-Sep-19 17:41 35.115868 -120.009690 101 9525ft 146kts
03-Sep-19 17:42 35.108282 -119.961034 100 9564ft 145kts
03-Sep-19 17:43 35.100686 -119.913347 101 9582ft 145kts
03-Sep-19 17:44 35.093070 -119.864901 100 9591ft 145kts
03-Sep-19 17:45 35.085301 -119.816581 97 9598ft 145kts
03-Sep-19 17:46 35.095312 -119.768100 74 9596ft 145kts
03-Sep-19 17:47 35.105354 -119.720355 75 9584ft 132kts
03-Sep-19 17:48 35.113368 -119.681311 75 9576ft 109kts
03-Sep-19 17:49 35.120483 -119.646309 75 9575ft 102kts
03-Sep-19 17:50 35.127314 -119.612548 75 9584ft 114kts
03-Sep-19 17:51 35.136359 -119.567226 76 9571ft 149kts
03-Sep-19 17:52 35.146328 -119.517143 74 9551ft 153kts
03-Sep-19 17:53 35.156599 -119.466050 74 9548ft 154kts
03-Sep-19 17:54 35.166819 -119.414993 74 9548ft 154kts
03-Sep-19 17:55 35.177017 -119.363959 74 9548ft 154kts
03-Sep-19 17:56 35.186121 -119.318166 75 9548ft 154kts
03-Sep-19 17:57 35.196220 -119.267221 75 9548ft 154kts
03-Sep-19 17:58 35.206042 -119.217641 75 9548ft 154kts
03-Sep-19 17:59 35.216169 -119.166397 75 9548ft 154kts
03-Sep-19 18:00 35.226100 -119.116181 75 9548ft 154kts
03-Sep-19 18:01 35.236312 -119.064358 75 9103ft 152kts
03-Sep-19 18:02 35.245572 -119.016995 75 7694ft 129kts
03-Sep-19 18:03 35.253097 -118.978537 73 5915ft 114kts
03-Sep-19 18:04 35.269853 -118.951644 0 4059ft 98kts
03-Sep-19 18:05 35.295013 -118.947974 359 3318ft 88kts
03-Sep-19 18:06 35.318983 -118.945699 348 2845ft 86kts
03-Sep-19 18:07 35.340869 -118.955747 328 2318ft 84kts
03-Sep-19 18:08 35.360098 -118.968907 318 2083ft 82kts
03-Sep-19 18:09 35.375722 -118.986371 314 1995ft 80kts
03-Sep-19 18:10 35.391205 -119.004677 308 1738ft 84kts
03-Sep-19 18:11 35.407232 -119.024023 314 1267ft 85kts
03-Sep-19 18:12 35.422103 -119.041947 315 786ft 72kts
03-Sep-19 18:13 35.434852 -119.057461 319 497ft 49kts
03-Sep-19 18:14 35.438235 -119.059794 79 496ft 0kts
03-Sep-19 18:15 35.436727 -119.057368 131 496ft 20kts
03-Sep-19 18:16 35.435034 -119.055483 133 496ft 3kts
03-Sep-19 18:17 35.434932 -119.055357 139 496ft 0kts
03-Sep-19 18:18 35.434963 -119.054202 52 496ft 10kts
03-Sep-19 18:19 35.435076 -119.053284 179 496ft 0kts
03-Sep-19 18:20 35.435076 -119.053284 179 496ft 0kts
03-Sep-19 18:21 35.435076 -119.053284 179 496ft 0kts
03-Sep-19 18:22 35.435076 -119.053284 179 496ft 0kts
03-Sep-19 18:23 35.435076 -119.053284 179 496ft 0kts
03-Sep-19 18:24 35.435076 -119.053284 179 496ft 0kts

Navigation Log

Ident Type
Flight plan parsing failed, navigation log unavailable